sensor_id;sensor_type;location;lat;lon;timestamp;P1;durP1;ratioP1;P2;durP2;ratioP2
16660;SDS011;8444;52.012;5.048;2023-01-20T00:01:21;11.10;;;7.50;;
16660;SDS011;8444;52.012;5.048;2023-01-20T00:03:46;11.20;;;7.67;;
16660;SDS011;8444;52.012;5.048;2023-01-20T00:06:12;11.37;;;6.97;;
16660;SDS011;8444;52.012;5.048;2023-01-20T00:08:37;12.07;;;7.37;;
16660;SDS011;8444;52.012;5.048;2023-01-20T00:11:03;11.67;;;6.90;;
16660;SDS011;8444;52.012;5.048;2023-01-20T00:13:29;12.47;;;8.03;;
16660;SDS011;8444;52.012;5.048;2023-01-20T00:15:54;11.90;;;7.33;;
16660;SDS011;8444;52.012;5.048;2023-01-20T00:18:19;15.00;;;8.53;;
16660;SDS011;8444;52.012;5.048;2023-01-20T00:20:45;12.07;;;8.07;;
16660;SDS011;8444;52.012;5.048;2023-01-20T00:23:10;12.80;;;7.83;;
16660;SDS011;8444;52.012;5.048;2023-01-20T00:25:35;12.07;;;8.23;;
16660;SDS011;8444;52.012;5.048;2023-01-20T00:28:01;13.17;;;8.27;;
16660;SDS011;8444;52.012;5.048;2023-01-20T00:30:26;16.00;;;8.70;;
16660;SDS011;8444;52.012;5.048;2023-01-20T00:32:51;12.83;;;8.50;;
16660;SDS011;8444;52.012;5.048;2023-01-20T00:35:16;14.57;;;9.13;;
16660;SDS011;8444;52.012;5.048;2023-01-20T00:37:42;17.40;;;9.40;;
16660;SDS011;8444;52.012;5.048;2023-01-20T00:40:07;15.17;;;9.87;;
16660;SDS011;8444;52.012;5.048;2023-01-20T00:42:33;14.20;;;8.77;;
16660;SDS011;8444;52.012;5.048;2023-01-20T00:44:58;15.17;;;9.57;;
16660;SDS011;8444;52.012;5.048;2023-01-20T00:47:23;15.33;;;9.27;;
16660;SDS011;8444;52.012;5.048;2023-01-20T00:49:48;15.13;;;8.90;;
16660;SDS011;8444;52.012;5.048;2023-01-20T00:52:14;17.57;;;10.00;;
16660;SDS011;8444;52.012;5.048;2023-01-20T00:54:39;16.03;;;10.10;;
16660;SDS011;8444;52.012;5.048;2023-01-20T00:57:04;14.80;;;9.17;;
16660;SDS011;8444;52.012;5.048;2023-01-20T00:59:29;15.93;;;10.70;;
16660;SDS011;8444;52.012;5.048;2023-01-20T01:01:55;16.30;;;9.77;;
16660;SDS011;8444;52.012;5.048;2023-01-20T01:04:20;17.33;;;10.67;;
16660;SDS011;8444;52.012;5.048;2023-01-20T01:06:45;20.17;;;9.77;;
16660;SDS011;8444;52.012;5.048;2023-01-20T01:09:11;18.87;;;10.57;;
16660;SDS011;8444;52.012;5.048;2023-01-20T01:11:36;21.57;;;11.73;;
16660;SDS011;8444;52.012;5.048;2023-01-20T01:14:01;19.53;;;10.70;;
16660;SDS011;8444;52.012;5.048;2023-01-20T01:16:26;20.27;;;11.93;;
16660;SDS011;8444;52.012;5.048;2023-01-20T01:18:52;17.70;;;10.87;;
16660;SDS011;8444;52.012;5.048;2023-01-20T01:21:18;23.90;;;10.63;;
16660;SDS011;8444;52.012;5.048;2023-01-20T01:23:43;20.70;;;11.87;;
16660;SDS011;8444;52.012;5.048;2023-01-20T01:26:08;19.73;;;10.60;;
16660;SDS011;8444;52.012;5.048;2023-01-20T01:28:34;20.50;;;12.10;;
16660;SDS011;8444;52.012;5.048;2023-01-20T01:31:00;18.77;;;10.63;;
16660;SDS011;8444;52.012;5.048;2023-01-20T01:33:26;18.93;;;10.97;;
16660;SDS011;8444;52.012;5.048;2023-01-20T01:35:58;18.40;;;11.20;;
16660;SDS011;8444;52.012;5.048;2023-01-20T01:38:24;21.30;;;12.00;;
16660;SDS011;8444;52.012;5.048;2023-01-20T01:40:49;20.33;;;11.17;;
16660;SDS011;8444;52.012;5.048;2023-01-20T01:45:52;23.17;;;13.57;;
16660;SDS011;8444;52.012;5.048;2023-01-20T01:48:19;29.80;;;13.70;;
16660;SDS011;8444;52.012;5.048;2023-01-20T01:51:32;24.57;;;13.77;;
16660;SDS011;8444;52.012;5.048;2023-01-20T01:53:32;24.97;;;14.03;;
16660;SDS011;8444;52.012;5.048;2023-01-20T01:56:01;27.97;;;15.13;;
16660;SDS011;8444;52.012;5.048;2023-01-20T01:58:27;29.73;;;16.30;;
16660;SDS011;8444;52.012;5.048;2023-01-20T02:00:53;32.90;;;17.17;;
16660;SDS011;8444;52.012;5.048;2023-01-20T02:03:18;28.57;;;15.50;;
16660;SDS011;8444;52.012;5.048;2023-01-20T02:05:44;30.40;;;16.80;;
16660;SDS011;8444;52.012;5.048;2023-01-20T02:08:10;35.90;;;16.87;;
16660;SDS011;8444;52.012;5.048;2023-01-20T02:10:35;34.97;;;17.40;;
16660;SDS011;8444;52.012;5.048;2023-01-20T02:13:00;39.03;;;18.83;;
16660;SDS011;8444;52.012;5.048;2023-01-20T02:15:27;36.07;;;18.67;;
16660;SDS011;8444;52.012;5.048;2023-01-20T02:18:08;40.27;;;18.00;;
16660;SDS011;8444;52.012;5.048;2023-01-20T02:30:49;38.20;;;19.10;;
16660;SDS011;8444;52.012;5.048;2023-01-20T02:33:27;41.47;;;22.23;;
16660;SDS011;8444;52.012;5.048;2023-01-20T02:35:54;42.00;;;22.33;;
16660;SDS011;8444;52.012;5.048;2023-01-20T02:40:53;35.37;;;18.90;;
16660;SDS011;8444;52.012;5.048;2023-01-20T02:43:30;38.27;;;19.07;;
16660;SDS011;8444;52.012;5.048;2023-01-20T02:51:22;42.63;;;19.27;;
16660;SDS011;8444;52.012;5.048;2023-01-20T02:53:54;45.50;;;19.00;;
16660;SDS011;8444;52.012;5.048;2023-01-20T02:56:21;39.47;;;20.20;;
16660;SDS011;8444;52.012;5.048;2023-01-20T02:58:49;46.20;;;20.10;;
16660;SDS011;8444;52.012;5.048;2023-01-20T03:01:25;40.47;;;19.37;;
16660;SDS011;8444;52.012;5.048;2023-01-20T03:03:54;38.67;;;19.37;;
16660;SDS011;8444;52.012;5.048;2023-01-20T03:06:21;41.60;;;19.07;;
16660;SDS011;8444;52.012;5.048;2023-01-20T03:08:49;48.90;;;21.37;;
16660;SDS011;8444;52.012;5.048;2023-01-20T03:11:15;40.03;;;21.20;;
16660;SDS011;8444;52.012;5.048;2023-01-20T03:13:43;44.13;;;20.33;;
16660;SDS011;8444;52.012;5.048;2023-01-20T03:16:11;46.87;;;21.03;;
16660;SDS011;8444;52.012;5.048;2023-01-20T03:18:37;42.87;;;19.83;;
16660;SDS011;8444;52.012;5.048;2023-01-20T03:21:04;41.47;;;21.00;;
16660;SDS011;8444;52.012;5.048;2023-01-20T03:23:30;43.73;;;21.33;;
16660;SDS011;8444;52.012;5.048;2023-01-20T03:25:57;43.93;;;20.27;;
16660;SDS011;8444;52.012;5.048;2023-01-20T03:28:23;46.73;;;21.30;;
16660;SDS011;8444;52.012;5.048;2023-01-20T03:30:48;47.20;;;21.77;;
16660;SDS011;8444;52.012;5.048;2023-01-20T03:33:13;40.50;;;19.97;;
16660;SDS011;8444;52.012;5.048;2023-01-20T03:35:39;37.40;;;20.87;;
16660;SDS011;8444;52.012;5.048;2023-01-20T03:38:04;46.53;;;21.80;;
16660;SDS011;8444;52.012;5.048;2023-01-20T03:40:30;43.83;;;21.30;;
16660;SDS011;8444;52.012;5.048;2023-01-20T03:42:59;45.83;;;21.17;;
16660;SDS011;8444;52.012;5.048;2023-01-20T03:45:35;42.70;;;21.00;;
16660;SDS011;8444;52.012;5.048;2023-01-20T03:53:43;53.53;;;22.80;;
16660;SDS011;8444;52.012;5.048;2023-01-20T03:58:34;51.20;;;23.63;;
16660;SDS011;8444;52.012;5.048;2023-01-20T04:01:00;48.07;;;21.73;;
16660;SDS011;8444;52.012;5.048;2023-01-20T04:03:28;44.97;;;21.70;;
16660;SDS011;8444;52.012;5.048;2023-01-20T04:05:55;49.27;;;22.30;;
16660;SDS011;8444;52.012;5.048;2023-01-20T04:08:21;51.00;;;21.50;;
16660;SDS011;8444;52.012;5.048;2023-01-20T04:10:48;53.00;;;24.90;;
16660;SDS011;8444;52.012;5.048;2023-01-20T04:13:14;56.40;;;22.83;;
16660;SDS011;8444;52.012;5.048;2023-01-20T04:15:41;56.93;;;25.63;;
16660;SDS011;8444;52.012;5.048;2023-01-20T04:18:18;51.27;;;21.83;;
16660;SDS011;8444;52.012;5.048;2023-01-20T04:20:45;54.50;;;22.60;;
16660;SDS011;8444;52.012;5.048;2023-01-20T04:23:13;50.90;;;23.40;;
16660;SDS011;8444;52.012;5.048;2023-01-20T04:25:41;58.93;;;25.53;;
16660;SDS011;8444;52.012;5.048;2023-01-20T04:28:06;57.97;;;22.10;;
16660;SDS011;8444;52.012;5.048;2023-01-20T04:30:31;55.77;;;23.50;;
16660;SDS011;8444;52.012;5.048;2023-01-20T04:32:56;60.20;;;24.03;;
16660;SDS011;8444;52.012;5.048;2023-01-20T04:35:21;56.80;;;23.80;;
16660;SDS011;8444;52.012;5.048;2023-01-20T04:37:47;59.97;;;25.60;;
16660;SDS011;8444;52.012;5.048;2023-01-20T04:40:12;54.57;;;24.63;;
16660;SDS011;8444;52.012;5.048;2023-01-20T04:42:37;49.53;;;25.00;;
16660;SDS011;8444;52.012;5.048;2023-01-20T04:45:03;53.13;;;23.30;;
16660;SDS011;8444;52.012;5.048;2023-01-20T04:47:29;54.17;;;24.47;;
16660;SDS011;8444;52.012;5.048;2023-01-20T04:49:54;52.53;;;23.40;;
16660;SDS011;8444;52.012;5.048;2023-01-20T04:52:19;52.60;;;22.97;;
16660;SDS011;8444;52.012;5.048;2023-01-20T04:54:44;54.70;;;24.43;;
16660;SDS011;8444;52.012;5.048;2023-01-20T04:57:09;57.73;;;23.43;;
16660;SDS011;8444;52.012;5.048;2023-01-20T04:59:35;64.03;;;24.27;;
16660;SDS011;8444;52.012;5.048;2023-01-20T05:02:00;54.70;;;25.40;;
16660;SDS011;8444;52.012;5.048;2023-01-20T05:04:25;54.97;;;24.70;;
16660;SDS011;8444;52.012;5.048;2023-01-20T05:06:50;61.20;;;25.43;;
16660;SDS011;8444;52.012;5.048;2023-01-20T05:09:15;61.33;;;27.53;;
16660;SDS011;8444;52.012;5.048;2023-01-20T05:11:41;59.87;;;25.43;;
16660;SDS011;8444;52.012;5.048;2023-01-20T05:14:07;63.43;;;26.60;;
16660;SDS011;8444;52.012;5.048;2023-01-20T05:16:32;60.77;;;26.20;;
16660;SDS011;8444;52.012;5.048;2023-01-20T05:18:58;74.33;;;28.73;;
16660;SDS011;8444;52.012;5.048;2023-01-20T05:21:23;68.07;;;27.60;;
16660;SDS011;8444;52.012;5.048;2023-01-20T05:23:49;65.13;;;28.30;;
16660;SDS011;8444;52.012;5.048;2023-01-20T05:26:14;64.77;;;26.07;;
16660;SDS011;8444;52.012;5.048;2023-01-20T05:28:40;65.03;;;26.37;;
16660;SDS011;8444;52.012;5.048;2023-01-20T05:31:06;70.50;;;27.93;;
16660;SDS011;8444;52.012;5.048;2023-01-20T05:33:31;71.70;;;26.70;;
16660;SDS011;8444;52.012;5.048;2023-01-20T05:35:56;68.00;;;27.70;;
16660;SDS011;8444;52.012;5.048;2023-01-20T05:38:21;64.53;;;29.00;;
16660;SDS011;8444;52.012;5.048;2023-01-20T05:40:47;68.30;;;29.87;;
16660;SDS011;8444;52.012;5.048;2023-01-20T05:43:12;64.83;;;28.13;;
16660;SDS011;8444;52.012;5.048;2023-01-20T05:45:37;87.10;;;30.30;;
16660;SDS011;8444;52.012;5.048;2023-01-20T05:48:02;74.17;;;30.33;;
16660;SDS011;8444;52.012;5.048;2023-01-20T05:50:28;73.77;;;29.10;;
16660;SDS011;8444;52.012;5.048;2023-01-20T05:52:53;83.03;;;30.43;;
16660;SDS011;8444;52.012;5.048;2023-01-20T05:55:19;71.33;;;28.70;;
16660;SDS011;8444;52.012;5.048;2023-01-20T05:57:44;79.53;;;30.90;;
16660;SDS011;8444;52.012;5.048;2023-01-20T06:00:09;88.20;;;33.83;;
16660;SDS011;8444;52.012;5.048;2023-01-20T06:02:35;74.23;;;30.13;;
16660;SDS011;8444;52.012;5.048;2023-01-20T06:05:00;68.57;;;28.57;;
16660;SDS011;8444;52.012;5.048;2023-01-20T06:07:26;68.20;;;28.57;;
16660;SDS011;8444;52.012;5.048;2023-01-20T06:09:51;67.53;;;25.93;;
16660;SDS011;8444;52.012;5.048;2023-01-20T06:12:16;76.13;;;29.90;;
16660;SDS011;8444;52.012;5.048;2023-01-20T06:14:41;69.10;;;29.20;;
16660;SDS011;8444;52.012;5.048;2023-01-20T06:17:07;76.57;;;27.57;;
16660;SDS011;8444;52.012;5.048;2023-01-20T06:19:32;68.57;;;27.00;;
16660;SDS011;8444;52.012;5.048;2023-01-20T06:21:57;64.73;;;27.07;;
16660;SDS011;8444;52.012;5.048;2023-01-20T06:24:22;71.50;;;28.53;;
16660;SDS011;8444;52.012;5.048;2023-01-20T06:26:50;75.37;;;30.67;;
16660;SDS011;8444;52.012;5.048;2023-01-20T06:29:16;72.50;;;29.13;;
16660;SDS011;8444;52.012;5.048;2023-01-20T06:31:41;68.27;;;28.80;;
16660;SDS011;8444;52.012;5.048;2023-01-20T06:34:09;73.47;;;29.57;;
16660;SDS011;8444;52.012;5.048;2023-01-20T06:36:34;75.57;;;27.77;;
16660;SDS011;8444;52.012;5.048;2023-01-20T06:38:59;75.20;;;31.17;;
16660;SDS011;8444;52.012;5.048;2023-01-20T06:41:24;71.27;;;28.47;;
16660;SDS011;8444;52.012;5.048;2023-01-20T06:43:49;79.10;;;28.27;;
16660;SDS011;8444;52.012;5.048;2023-01-20T06:46:15;75.40;;;28.97;;
16660;SDS011;8444;52.012;5.048;2023-01-20T06:48:40;68.90;;;27.97;;
16660;SDS011;8444;52.012;5.048;2023-01-20T06:53:31;68.27;;;26.77;;
16660;SDS011;8444;52.012;5.048;2023-01-20T06:55:57;64.60;;;26.93;;
16660;SDS011;8444;52.012;5.048;2023-01-20T06:58:26;62.40;;;27.27;;
16660;SDS011;8444;52.012;5.048;2023-01-20T07:00:52;59.03;;;23.83;;
16660;SDS011;8444;52.012;5.048;2023-01-20T07:03:17;56.47;;;25.50;;
16660;SDS011;8444;52.012;5.048;2023-01-20T07:05:42;57.93;;;25.70;;
16660;SDS011;8444;52.012;5.048;2023-01-20T07:08:07;61.20;;;25.70;;
16660;SDS011;8444;52.012;5.048;2023-01-20T07:10:33;60.30;;;23.43;;
16660;SDS011;8444;52.012;5.048;2023-01-20T07:12:58;55.57;;;25.37;;
16660;SDS011;8444;52.012;5.048;2023-01-20T07:15:23;58.17;;;23.90;;
16660;SDS011;8444;52.012;5.048;2023-01-20T07:17:48;64.60;;;26.60;;
16660;SDS011;8444;52.012;5.048;2023-01-20T07:20:13;52.87;;;24.50;;
16660;SDS011;8444;52.012;5.048;2023-01-20T07:22:39;59.87;;;24.20;;
16660;SDS011;8444;52.012;5.048;2023-01-20T07:25:04;55.90;;;23.77;;
16660;SDS011;8444;52.012;5.048;2023-01-20T07:27:29;53.17;;;23.20;;
16660;SDS011;8444;52.012;5.048;2023-01-20T07:29:54;51.23;;;24.43;;
16660;SDS011;8444;52.012;5.048;2023-01-20T07:32:20;53.93;;;22.73;;
16660;SDS011;8444;52.012;5.048;2023-01-20T07:34:45;46.10;;;21.40;;
16660;SDS011;8444;52.012;5.048;2023-01-20T07:37:10;44.33;;;20.40;;
16660;SDS011;8444;52.012;5.048;2023-01-20T07:39:35;52.63;;;22.90;;
16660;SDS011;8444;52.012;5.048;2023-01-20T07:42:01;40.47;;;21.00;;
16660;SDS011;8444;52.012;5.048;2023-01-20T07:44:26;45.13;;;22.17;;
16660;SDS011;8444;52.012;5.048;2023-01-20T07:46:51;43.50;;;21.17;;
16660;SDS011;8444;52.012;5.048;2023-01-20T07:49:16;40.83;;;20.50;;
16660;SDS011;8444;52.012;5.048;2023-01-20T07:51:41;44.23;;;21.57;;
16660;SDS011;8444;52.012;5.048;2023-01-20T07:54:08;46.20;;;20.63;;
16660;SDS011;8444;52.012;5.048;2023-01-20T07:56:34;46.07;;;20.07;;
16660;SDS011;8444;52.012;5.048;2023-01-20T07:58:59;40.93;;;21.13;;
16660;SDS011;8444;52.012;5.048;2023-01-20T08:01:25;43.67;;;21.57;;
16660;SDS011;8444;52.012;5.048;2023-01-20T08:03:51;40.17;;;19.70;;
16660;SDS011;8444;52.012;5.048;2023-01-20T08:06:19;39.37;;;20.23;;
16660;SDS011;8444;52.012;5.048;2023-01-20T08:08:44;41.20;;;21.33;;
16660;SDS011;8444;52.012;5.048;2023-01-20T08:11:10;42.20;;;19.47;;
16660;SDS011;8444;52.012;5.048;2023-01-20T08:13:37;38.57;;;20.30;;
16660;SDS011;8444;52.012;5.048;2023-01-20T08:16:04;44.93;;;21.27;;
16660;SDS011;8444;52.012;5.048;2023-01-20T08:18:29;41.63;;;20.37;;
16660;SDS011;8444;52.012;5.048;2023-01-20T08:20:56;40.73;;;20.90;;
16660;SDS011;8444;52.012;5.048;2023-01-20T08:23:21;44.73;;;22.43;;
16660;SDS011;8444;52.012;5.048;2023-01-20T08:25:46;44.30;;;21.33;;
16660;SDS011;8444;52.012;5.048;2023-01-20T08:28:11;48.87;;;22.43;;
16660;SDS011;8444;52.012;5.048;2023-01-20T08:30:37;47.67;;;21.03;;
16660;SDS011;8444;52.012;5.048;2023-01-20T08:33:02;42.27;;;22.27;;
16660;SDS011;8444;52.012;5.048;2023-01-20T08:35:27;39.63;;;20.77;;
16660;SDS011;8444;52.012;5.048;2023-01-20T08:37:52;39.00;;;19.87;;
16660;SDS011;8444;52.012;5.048;2023-01-20T08:40:18;40.53;;;20.60;;
16660;SDS011;8444;52.012;5.048;2023-01-20T08:42:43;45.57;;;20.27;;
16660;SDS011;8444;52.012;5.048;2023-01-20T08:45:08;43.37;;;22.77;;
16660;SDS011;8444;52.012;5.048;2023-01-20T08:47:34;41.10;;;18.93;;
16660;SDS011;8444;52.012;5.048;2023-01-20T08:50:00;42.13;;;20.87;;
16660;SDS011;8444;52.012;5.048;2023-01-20T08:52:25;43.30;;;19.83;;
16660;SDS011;8444;52.012;5.048;2023-01-20T08:54:51;34.63;;;18.90;;
16660;SDS011;8444;52.012;5.048;2023-01-20T08:57:17;37.00;;;18.73;;
16660;SDS011;8444;52.012;5.048;2023-01-20T08:59:42;36.60;;;19.30;;
16660;SDS011;8444;52.012;5.048;2023-01-20T09:02:08;37.00;;;18.27;;
16660;SDS011;8444;52.012;5.048;2023-01-20T09:04:34;34.50;;;19.13;;
16660;SDS011;8444;52.012;5.048;2023-01-20T09:07:00;33.60;;;17.20;;
16660;SDS011;8444;52.012;5.048;2023-01-20T09:09:25;33.57;;;17.77;;
16660;SDS011;8444;52.012;5.048;2023-01-20T09:11:50;33.70;;;18.20;;
16660;SDS011;8444;52.012;5.048;2023-01-20T09:14:19;34.33;;;17.47;;
16660;SDS011;8444;52.012;5.048;2023-01-20T09:16:44;33.17;;;17.27;;
16660;SDS011;8444;52.012;5.048;2023-01-20T09:19:09;28.57;;;15.93;;
16660;SDS011;8444;52.012;5.048;2023-01-20T09:21:35;31.03;;;16.53;;
16660;SDS011;8444;52.012;5.048;2023-01-20T09:24:00;30.37;;;16.13;;
16660;SDS011;8444;52.012;5.048;2023-01-20T09:26:25;29.53;;;17.23;;
16660;SDS011;8444;52.012;5.048;2023-01-20T09:28:50;32.30;;;16.27;;
16660;SDS011;8444;52.012;5.048;2023-01-20T09:31:16;27.73;;;15.77;;
16660;SDS011;8444;52.012;5.048;2023-01-20T09:33:41;30.17;;;16.13;;
16660;SDS011;8444;52.012;5.048;2023-01-20T09:36:07;25.33;;;14.00;;
16660;SDS011;8444;52.012;5.048;2023-01-20T09:38:33;29.83;;;15.57;;
16660;SDS011;8444;52.012;5.048;2023-01-20T09:41:30;25.60;;;14.23;;
16660;SDS011;8444;52.012;5.048;2023-01-20T09:49:20;28.33;;;15.50;;
16660;SDS011;8444;52.012;5.048;2023-01-20T09:55:09;26.27;;;14.00;;
16660;SDS011;8444;52.012;5.048;2023-01-20T09:57:36;24.90;;;13.93;;
16660;SDS011;8444;52.012;5.048;2023-01-20T10:00:07;24.90;;;14.00;;
16660;SDS011;8444;52.012;5.048;2023-01-20T10:02:35;23.37;;;14.97;;
16660;SDS011;8444;52.012;5.048;2023-01-20T10:07:32;20.57;;;12.40;;
16660;SDS011;8444;52.012;5.048;2023-01-20T10:12:34;21.40;;;12.87;;
16660;SDS011;8444;52.012;5.048;2023-01-20T10:17:44;21.60;;;12.60;;
16660;SDS011;8444;52.012;5.048;2023-01-20T10:20:14;23.87;;;12.57;;
16660;SDS011;8444;52.012;5.048;2023-01-20T10:22:49;18.67;;;11.30;;
16660;SDS011;8444;52.012;5.048;2023-01-20T10:25:20;20.37;;;12.00;;
16660;SDS011;8444;52.012;5.048;2023-01-20T10:27:51;19.77;;;11.97;;
16660;SDS011;8444;52.012;5.048;2023-01-20T10:30:17;18.33;;;11.67;;
16660;SDS011;8444;52.012;5.048;2023-01-20T10:32:52;20.13;;;13.37;;
16660;SDS011;8444;52.012;5.048;2023-01-20T10:35:20;18.90;;;11.80;;
16660;SDS011;8444;52.012;5.048;2023-01-20T10:37:46;18.93;;;11.50;;
16660;SDS011;8444;52.012;5.048;2023-01-20T10:40:27;17.70;;;11.03;;
16660;SDS011;8444;52.012;5.048;2023-01-20T10:42:58;20.23;;;10.97;;
16660;SDS011;8444;52.012;5.048;2023-01-20T10:53:36;15.20;;;9.53;;
16660;SDS011;8444;52.012;5.048;2023-01-20T10:58:43;15.63;;;9.57;;
16660;SDS011;8444;52.012;5.048;2023-01-20T11:01:10;16.37;;;8.63;;
16660;SDS011;8444;52.012;5.048;2023-01-20T11:03:41;12.57;;;8.30;;
16660;SDS011;8444;52.012;5.048;2023-01-20T11:06:07;12.80;;;7.97;;
16660;SDS011;8444;52.012;5.048;2023-01-20T11:08:34;15.53;;;9.47;;
16660;SDS011;8444;52.012;5.048;2023-01-20T11:11:08;11.37;;;7.50;;
16660;SDS011;8444;52.012;5.048;2023-01-20T11:13:34;12.80;;;7.87;;
16660;SDS011;8444;52.012;5.048;2023-01-20T11:16:00;12.03;;;7.80;;
16660;SDS011;8444;52.012;5.048;2023-01-20T11:18:28;11.20;;;7.77;;
16660;SDS011;8444;52.012;5.048;2023-01-20T11:23:24;12.47;;;7.13;;
16660;SDS011;8444;52.012;5.048;2023-01-20T11:25:57;9.00;;;6.03;;
16660;SDS011;8444;52.012;5.048;2023-01-20T11:28:22;11.63;;;6.80;;
16660;SDS011;8444;52.012;5.048;2023-01-20T11:30:52;9.50;;;6.20;;
16660;SDS011;8444;52.012;5.048;2023-01-20T11:33:25;11.40;;;7.50;;
16660;SDS011;8444;52.012;5.048;2023-01-20T11:38:23;12.97;;;7.27;;
16660;SDS011;8444;52.012;5.048;2023-01-20T11:40:52;11.53;;;7.27;;
16660;SDS011;8444;52.012;5.048;2023-01-20T11:43:27;10.00;;;6.70;;
16660;SDS011;8444;52.012;5.048;2023-01-20T11:46:08;10.77;;;6.37;;
16660;SDS011;8444;52.012;5.048;2023-01-20T11:48:33;10.70;;;7.07;;
16660;SDS011;8444;52.012;5.048;2023-01-20T11:51:00;10.10;;;7.10;;
16660;SDS011;8444;52.012;5.048;2023-01-20T11:53:26;10.87;;;7.37;;
16660;SDS011;8444;52.012;5.048;2023-01-20T11:55:52;11.07;;;8.10;;
16660;SDS011;8444;52.012;5.048;2023-01-20T11:58:28;12.43;;;8.30;;
16660;SDS011;8444;52.012;5.048;2023-01-20T12:01:48;12.63;;;8.10;;
16660;SDS011;8444;52.012;5.048;2023-01-20T12:03:54;13.77;;;8.83;;
16660;SDS011;8444;52.012;5.048;2023-01-20T12:11:22;13.73;;;9.03;;
16660;SDS011;8444;52.012;5.048;2023-01-20T12:14:03;14.00;;;8.47;;
16660;SDS011;8444;52.012;5.048;2023-01-20T12:19:19;9.73;;;6.93;;
16660;SDS011;8444;52.012;5.048;2023-01-20T12:21:51;11.47;;;7.33;;
16660;SDS011;8444;52.012;5.048;2023-01-20T12:24:22;10.33;;;6.10;;
16660;SDS011;8444;52.012;5.048;2023-01-20T12:26:49;11.40;;;6.80;;
16660;SDS011;8444;52.012;5.048;2023-01-20T12:29:33;9.70;;;6.23;;
16660;SDS011;8444;52.012;5.048;2023-01-20T12:32:00;11.07;;;7.20;;
16660;SDS011;8444;52.012;5.048;2023-01-20T12:34:26;12.63;;;7.03;;
16660;SDS011;8444;52.012;5.048;2023-01-20T12:37:11;10.70;;;6.93;;
16660;SDS011;8444;52.012;5.048;2023-01-20T12:42:27;12.20;;;7.70;;
16660;SDS011;8444;52.012;5.048;2023-01-20T12:55:22;12.63;;;9.50;;
16660;SDS011;8444;52.012;5.048;2023-01-20T12:57:54;13.00;;;8.00;;
16660;SDS011;8444;52.012;5.048;2023-01-20T13:05:32;12.23;;;8.53;;
16660;SDS011;8444;52.012;5.048;2023-01-20T13:10:50;12.83;;;9.07;;
16660;SDS011;8444;52.012;5.048;2023-01-20T13:16:12;12.33;;;8.53;;
16660;SDS011;8444;52.012;5.048;2023-01-20T13:21:12;13.37;;;8.73;;
16660;SDS011;8444;52.012;5.048;2023-01-20T13:23:40;13.87;;;8.20;;
16660;SDS011;8444;52.012;5.048;2023-01-20T13:26:06;15.27;;;9.20;;
16660;SDS011;8444;52.012;5.048;2023-01-20T13:28:31;17.47;;;9.87;;
16660;SDS011;8444;52.012;5.048;2023-01-20T13:30:57;13.10;;;9.37;;
16660;SDS011;8444;52.012;5.048;2023-01-20T13:35:58;15.13;;;9.43;;
16660;SDS011;8444;52.012;5.048;2023-01-20T13:38:29;15.30;;;9.67;;
16660;SDS011;8444;52.012;5.048;2023-01-20T13:41:00;16.47;;;9.67;;
16660;SDS011;8444;52.012;5.048;2023-01-20T13:48:26;15.10;;;10.00;;
16660;SDS011;8444;52.012;5.048;2023-01-20T13:50:51;17.67;;;10.13;;
16660;SDS011;8444;52.012;5.048;2023-01-20T13:58:24;18.10;;;10.90;;
16660;SDS011;8444;52.012;5.048;2023-01-20T14:00:55;17.67;;;10.63;;
16660;SDS011;8444;52.012;5.048;2023-01-20T14:05:49;17.93;;;10.80;;
16660;SDS011;8444;52.012;5.048;2023-01-20T14:08:15;17.50;;;11.40;;
16660;SDS011;8444;52.012;5.048;2023-01-20T14:10:40;19.33;;;10.93;;
16660;SDS011;8444;52.012;5.048;2023-01-20T14:13:09;21.63;;;12.10;;
16660;SDS011;8444;52.012;5.048;2023-01-20T14:15:35;22.90;;;12.40;;
16660;SDS011;8444;52.012;5.048;2023-01-20T14:18:01;21.87;;;10.83;;
16660;SDS011;8444;52.012;5.048;2023-01-20T14:20:27;19.53;;;10.57;;
16660;SDS011;8444;52.012;5.048;2023-01-20T14:22:53;20.93;;;11.47;;
16660;SDS011;8444;52.012;5.048;2023-01-20T14:25:22;20.97;;;11.63;;
16660;SDS011;8444;52.012;5.048;2023-01-20T14:27:48;22.67;;;11.43;;
16660;SDS011;8444;52.012;5.048;2023-01-20T14:30:14;17.30;;;10.10;;
16660;SDS011;8444;52.012;5.048;2023-01-20T14:32:40;20.50;;;11.53;;
16660;SDS011;8444;52.012;5.048;2023-01-20T14:37:40;17.27;;;10.47;;
16660;SDS011;8444;52.012;5.048;2023-01-20T14:42:33;16.47;;;10.00;;
16660;SDS011;8444;52.012;5.048;2023-01-20T14:45:00;14.50;;;9.83;;
16660;SDS011;8444;52.012;5.048;2023-01-20T14:47:25;13.40;;;8.47;;
16660;SDS011;8444;52.012;5.048;2023-01-20T14:49:51;13.03;;;8.63;;
16660;SDS011;8444;52.012;5.048;2023-01-20T14:52:23;14.60;;;9.30;;
16660;SDS011;8444;52.012;5.048;2023-01-20T14:54:50;14.97;;;9.70;;
16660;SDS011;8444;52.012;5.048;2023-01-20T14:57:19;16.73;;;9.63;;
16660;SDS011;8444;52.012;5.048;2023-01-20T14:59:46;15.73;;;9.90;;
16660;SDS011;8444;52.012;5.048;2023-01-20T15:02:26;16.63;;;10.17;;
16660;SDS011;8444;52.012;5.048;2023-01-20T15:04:51;14.30;;;8.73;;
16660;SDS011;8444;52.012;5.048;2023-01-20T15:07:17;17.00;;;10.53;;
16660;SDS011;8444;52.012;5.048;2023-01-20T15:09:47;19.67;;;10.93;;
16660;SDS011;8444;52.012;5.048;2023-01-20T15:14:58;19.73;;;11.27;;
16660;SDS011;8444;52.012;5.048;2023-01-20T15:17:27;22.67;;;11.43;;
16660;SDS011;8444;52.012;5.048;2023-01-20T15:19:52;20.90;;;12.33;;
16660;SDS011;8444;52.012;5.048;2023-01-20T15:22:19;21.63;;;12.40;;
16660;SDS011;8444;52.012;5.048;2023-01-20T15:24:45;21.07;;;12.10;;
16660;SDS011;8444;52.012;5.048;2023-01-20T15:27:27;20.07;;;11.47;;
16660;SDS011;8444;52.012;5.048;2023-01-20T15:32:37;23.13;;;11.77;;
16660;SDS011;8444;52.012;5.048;2023-01-20T15:35:02;20.03;;;11.93;;
16660;SDS011;8444;52.012;5.048;2023-01-20T15:37:27;21.80;;;12.07;;
16660;SDS011;8444;52.012;5.048;2023-01-20T15:39:52;22.30;;;12.37;;
16660;SDS011;8444;52.012;5.048;2023-01-20T15:42:18;20.83;;;12.37;;
16660;SDS011;8444;52.012;5.048;2023-01-20T15:44:43;23.27;;;12.20;;
16660;SDS011;8444;52.012;5.048;2023-01-20T15:47:16;19.50;;;11.60;;
16660;SDS011;8444;52.012;5.048;2023-01-20T15:49:42;23.53;;;12.70;;
16660;SDS011;8444;52.012;5.048;2023-01-20T15:52:08;20.47;;;12.33;;
16660;SDS011;8444;52.012;5.048;2023-01-20T15:54:34;22.77;;;13.50;;
16660;SDS011;8444;52.012;5.048;2023-01-20T15:56:59;21.27;;;11.67;;
16660;SDS011;8444;52.012;5.048;2023-01-20T15:59:24;22.23;;;12.37;;
16660;SDS011;8444;52.012;5.048;2023-01-20T16:01:49;20.23;;;11.83;;
16660;SDS011;8444;52.012;5.048;2023-01-20T16:04:15;21.37;;;11.10;;
16660;SDS011;8444;52.012;5.048;2023-01-20T16:06:40;19.10;;;11.07;;
16660;SDS011;8444;52.012;5.048;2023-01-20T16:09:20;20.70;;;10.67;;
16660;SDS011;8444;52.012;5.048;2023-01-20T16:11:48;19.20;;;10.77;;
16660;SDS011;8444;52.012;5.048;2023-01-20T16:14:13;19.67;;;11.60;;
16660;SDS011;8444;52.012;5.048;2023-01-20T16:16:39;19.93;;;11.30;;
16660;SDS011;8444;52.012;5.048;2023-01-20T16:19:05;19.40;;;11.67;;
16660;SDS011;8444;52.012;5.048;2023-01-20T16:21:31;20.70;;;11.43;;
16660;SDS011;8444;52.012;5.048;2023-01-20T16:23:56;20.17;;;12.27;;
16660;SDS011;8444;52.012;5.048;2023-01-20T16:28:47;21.97;;;12.07;;
16660;SDS011;8444;52.012;5.048;2023-01-20T16:31:12;21.77;;;12.40;;
16660;SDS011;8444;52.012;5.048;2023-01-20T16:33:37;20.33;;;12.00;;
16660;SDS011;8444;52.012;5.048;2023-01-20T16:36:02;19.23;;;11.30;;
16660;SDS011;8444;52.012;5.048;2023-01-20T16:38:28;18.40;;;11.50;;
16660;SDS011;8444;52.012;5.048;2023-01-20T16:40:57;18.63;;;11.23;;
16660;SDS011;8444;52.012;5.048;2023-01-20T16:43:26;17.63;;;10.93;;